Time;durP1;ratioP1;P1;durP2;ratioP2;P2;SDS_P1;SDS_P2;PMS_P1;PMS_P2;Temp;Humidity;BMP_temperature;BMP_pressure;BME280_temperature;BME280_humidity;BME280_pressure;Samples;Min_cycle;Max_cycle;Signal;HPM_P1;HPM_P2
2022/03/29 00:00:49;;;;;;;29.05;14.73;;;;;;;5.61;100.00;101581.72;5283394;28;27311;-77
2022/03/29 00:03:20;;;;;;;26.10;13.63;;;;;;;5.78;100.00;101588.66;5264208;28;20033;-77
2022/03/29 00:05:52;;;;;;;24.67;13.13;;;;;;;5.72;100.00;101592.53;5283855;28;20028;-77
2022/03/29 00:08:23;;;;;;;21.17;11.93;;;;;;;5.71;100.00;101598.75;5283531;28;20032;-77
2022/03/29 00:10:55;;;;;;;23.00;12.32;;;;;;;5.95;100.00;101587.63;5283417;28;20033;-77
2022/03/29 00:13:26;;;;;;;28.92;16.63;;;;;;;6.05;100.00;101597.59;5283334;28;20041;-77
2022/03/29 00:15:57;;;;;;;30.13;17.60;;;;;;;5.77;100.00;101595.75;5276875;28;20891;-77
2022/03/29 00:18:28;;;;;;;28.40;15.27;;;;;;;6.03;100.00;101588.91;5266227;28;20058;-77
2022/03/29 00:21:00;;;;;;;33.83;19.40;;;;;;;5.87;100.00;101588.09;5283244;28;20029;-77
2022/03/29 00:23:31;;;;;;;31.67;17.67;;;;;;;6.20;100.00;101592.28;5283369;28;20032;-76
2022/03/29 00:26:03;;;;;;;31.40;20.13;;;;;;;6.20;100.00;101584.34;5282964;28;20401;-76
2022/03/29 00:28:34;;;;;;;34.47;21.23;;;;;;;6.10;100.00;101581.44;5283234;28;20021;-76
2022/03/29 00:31:05;;;;;;;32.28;20.80;;;;;;;6.17;100.00;101574.81;5265242;28;20044;-77
2022/03/29 00:33:37;;;;;;;33.45;20.75;;;;;;;6.10;100.00;101577.91;5282539;28;20091;-76
2022/03/29 00:36:08;;;;;;;32.38;20.60;;;;;;;5.95;100.00;101574.38;5282358;28;20023;-76
2022/03/29 00:38:40;;;;;;;31.60;21.92;;;;;;;6.09;100.00;101563.81;5278469;28;20021;-76
2022/03/29 00:41:11;;;;;;;32.83;20.80;;;;;;;6.12;100.00;101568.94;5281694;28;20551;-77
2022/03/29 00:43:43;;;;;;;33.72;20.20;;;;;;;6.19;100.00;101566.75;5282712;28;20108;-77
2022/03/29 00:46:14;;;;;;;28.63;18.10;;;;;;;6.10;100.00;101560.25;5281633;28;20032;-77
2022/03/29 00:48:46;;;;;;;31.55;21.08;;;;;;;6.02;100.00;101550.09;5282768;28;20401;-76
2022/03/29 00:51:17;;;;;;;26.15;18.52;;;;;;;6.19;100.00;101556.16;5283100;28;20032;-77
2022/03/29 00:53:49;;;;;;;34.83;21.42;;;;;;;6.17;100.00;101550.97;5282549;28;20438;-76
2022/03/29 00:56:20;;;;;;;34.03;22.35;;;;;;;6.09;100.00;101542.63;5281580;28;20481;-77
2022/03/29 00:58:52;;;;;;;33.55;21.05;;;;;;;5.99;100.00;101541.50;5282347;28;20024;-77
2022/03/29 01:01:24;;;;;;;33.33;22.38;;;;;;;6.04;100.00;101540.25;5264114;28;20028;-77
2022/03/29 01:03:55;;;;;;;28.42;19.95;;;;;;;5.84;100.00;101538.81;5279389;28;20021;-77
2022/03/29 01:06:26;;;;;;;32.00;21.20;;;;;;;6.08;100.00;101524.19;5282122;28;20029;-76
2022/03/29 01:08:58;;;;;;;29.83;19.50;;;;;;;5.86;100.00;101536.94;5282664;28;20032;-76
2022/03/29 01:11:30;;;;;;;31.30;21.58;;;;;;;5.69;100.00;101529.19;5282441;28;20036;-77
2022/03/29 01:14:02;;;;;;;29.10;20.08;;;;;;;5.64;100.00;101534.75;5282036;28;20338;-77
2022/03/29 01:19:25;;;;;;;31.98;21.65;;;;;;;5.48;100.00;101513.66;5282134;28;20033;-76
2022/03/29 01:21:59;;;;;;;33.28;22.58;;;;;;;5.57;100.00;101517.53;5282697;28;20055;-76
2022/03/29 01:24:30;;;;;;;30.90;17.98;;;;;;;5.55;100.00;101531.81;5263513;28;20119;-76
2022/03/29 01:27:05;;;;;;;33.53;20.65;;;;;;;5.58;100.00;101529.00;5281680;28;20112;-76
2022/03/29 01:29:38;;;;;;;32.33;20.58;;;;;;;5.66;100.00;101516.13;5259455;28;20050;-76
2022/03/29 01:32:11;;;;;;;33.47;21.80;;;;;;;5.86;100.00;101525.50;5280220;28;20478;-76
2022/03/29 01:34:43;;;;;;;33.33;19.92;;;;;;;5.87;100.00;101522.75;5260263;28;20026;-76
2022/03/29 01:37:15;;;;;;;34.75;20.55;;;;;;;5.94;100.00;101520.56;5281454;28;20096;-76
2022/03/29 01:39:46;;;;;;;31.95;20.25;;;;;;;5.89;100.00;101527.97;5281981;28;20131;-76
2022/03/29 01:42:18;;;;;;;32.65;22.20;;;;;;;5.95;100.00;101519.63;5281110;28;20398;-76
2022/03/29 01:44:49;;;;;;;30.00;18.70;;;;;;;5.97;100.00;101516.91;5280617;28;20025;-76
2022/03/29 01:47:21;;;;;;;49.00;28.75;;;;;;;5.77;100.00;101511.03;5282024;28;20025;-76
2022/03/29 01:49:53;;;;;;;34.40;22.05;;;;;;;5.74;100.00;101516.50;5281769;28;20480;-77
2022/03/29 01:52:24;;;;;;;36.40;22.13;;;;;;;5.90;100.00;101515.56;5280707;28;20033;-76
2022/03/29 01:54:56;;;;;;;33.70;21.13;;;;;;;5.86;100.00;101506.97;5262105;28;20032;-76
2022/03/29 01:57:27;;;;;;;40.80;23.08;;;;;;;5.86;100.00;101499.88;5281451;28;20078;-76
2022/03/29 02:02:48;;;;;;;35.88;23.50;;;;;;;5.80;100.00;101494.09;5280782;28;20041;-76
2022/03/29 02:05:20;;;;;;;42.65;26.35;;;;;;;5.76;100.00;101493.44;5272677;28;20832;-77
2022/03/29 02:07:51;;;;;;;37.22;23.15;;;;;;;5.77;100.00;101491.66;5263638;28;20045;-76
2022/03/29 02:10:22;;;;;;;44.28;30.17;;;;;;;5.57;100.00;101477.84;5281084;28;20035;-76
2022/03/29 02:12:54;;;;;;;48.13;31.25;;;;;;;5.59;100.00;101483.91;5280644;28;20034;-76
2022/03/29 02:15:26;;;;;;;48.13;33.10;;;;;;;5.65;100.00;101485.31;5280549;28;20037;-76
2022/03/29 02:17:57;;;;;;;48.63;32.42;;;;;;;5.59;100.00;101480.41;5276828;28;20024;-76
2022/03/29 02:20:28;;;;;;;41.92;28.00;;;;;;;5.68;100.00;101482.50;5280586;28;20127;-76
2022/03/29 02:23:04;;;;;;;37.80;24.20;;;;;;;5.67;100.00;101475.50;5280532;28;20051;-76
2022/03/29 02:25:36;;;;;;;36.65;23.65;;;;;;;5.74;100.00;101462.72;5272980;28;20087;-76
2022/03/29 02:28:07;;;;;;;52.17;33.60;;;;;;;5.72;100.00;101480.50;5281143;28;20551;-76
2022/03/29 02:30:39;;;;;;;54.35;33.33;;;;;;;5.73;100.00;101472.44;5270141;28;20032;-76
2022/03/29 02:33:10;;;;;;;49.42;31.75;;;;;;;5.71;100.00;101461.09;5280718;28;20041;-76
2022/03/29 02:35:42;;;;;;;38.45;26.23;;;;;;;5.87;100.00;101453.03;5263287;28;20035;-76
2022/03/29 02:38:14;;;;;;;51.95;34.25;;;;;;;5.63;100.00;101458.09;5280290;28;20496;-76
2022/03/29 02:40:45;;;;;;;44.95;31.63;;;;;;;5.72;100.00;101459.34;5280605;28;20068;-76
2022/03/29 02:43:16;;;;;;;43.80;27.73;;;;;;;5.61;100.00;101458.19;5273283;28;20108;-76
2022/03/29 02:45:48;;;;;;;43.30;27.63;;;;;;;5.66;100.00;101444.66;5271878;28;20021;-76
2022/03/29 02:48:19;;;;;;;51.95;30.88;;;;;;;5.73;100.00;101450.44;5281413;28;20064;-76
2022/03/29 02:50:51;;;;;;;43.72;27.65;;;;;;;5.84;100.00;101443.50;5281337;28;20025;-76
2022/03/29 02:53:22;;;;;;;51.75;33.15;;;;;;;5.77;100.00;101439.56;5268042;28;20452;-76
2022/03/29 02:55:54;;;;;;;54.38;34.22;;;;;;;5.91;100.00;101436.03;5272006;28;20382;-76
2022/03/29 02:58:25;;;;;;;48.50;28.17;;;;;;;6.01;100.00;101423.06;5280662;28;20104;-76
2022/03/29 03:00:57;;;;;;;46.70;28.45;;;;;;;6.15;100.00;101428.31;5281256;28;20029;-77
2022/03/29 03:03:31;;;;;;;53.90;31.60;;;;;;;6.12;100.00;101432.97;5281177;28;20021;-76
2022/03/29 03:06:03;;;;;;;41.22;26.67;;;;;;;6.27;100.00;101431.16;5284827;28;20536;-76
2022/03/29 03:08:34;;;;;;;48.33;29.38;;;;;;;6.29;100.00;101423.94;5284979;28;20025;-76
2022/03/29 03:11:06;;;;;;;52.47;32.88;;;;;;;6.25;100.00;101418.00;5284782;28;20508;-76
2022/03/29 03:13:37;;;;;;;53.63;31.92;;;;;;;6.23;100.00;101412.78;5269640;28;20042;-77
2022/03/29 03:16:08;;;;;;;48.60;27.48;;;;;;;6.35;100.00;101416.44;5276169;28;20450;-76
2022/03/29 03:18:40;;;;;;;60.70;40.00;;;;;;;6.14;100.00;101418.69;5284774;28;20021;-76
2022/03/29 03:21:12;;;;;;;56.55;37.55;;;;;;;6.10;100.00;101408.38;5284212;28;20040;-76
2022/03/29 03:23:43;;;;;;;56.05;37.00;;;;;;;6.09;100.00;101412.84;5282137;28;20078;-76
2022/03/29 03:26:15;;;;;;;58.00;36.85;;;;;;;6.10;100.00;101409.25;5281242;28;20021;-77
2022/03/29 03:28:46;;;;;;;54.28;37.10;;;;;;;6.06;100.00;101403.28;5282822;28;20040;-77
2022/03/29 03:31:17;;;;;;;48.55;31.27;;;;;;;6.14;100.00;101404.63;5279849;28;20043;-76
2022/03/29 03:33:49;;;;;;;50.13;34.08;;;;;;;6.10;100.00;101411.91;5282110;28;20083;-76
2022/03/29 03:36:20;;;;;;;51.53;35.42;;;;;;;6.09;100.00;101410.19;5281584;28;20117;-76
2022/03/29 03:38:52;;;;;;;57.47;37.13;;;;;;;6.00;100.00;101393.09;5278126;28;20017;-77
2022/03/29 03:41:23;;;;;;;53.20;35.90;;;;;;;6.08;100.00;101399.69;5280943;28;20037;-76
2022/03/29 03:43:54;;;;;;;56.80;37.55;;;;;;;5.99;100.00;101399.34;5282439;28;20025;-76
2022/03/29 03:46:25;;;;;;;52.88;36.60;;;;;;;5.97;100.00;101393.28;5282623;28;20389;-77
2022/03/29 03:48:57;;;;;;;56.92;37.53;;;;;;;5.94;100.00;101395.25;5282300;28;20509;-76
2022/03/29 03:51:28;;;;;;;56.85;36.85;;;;;;;5.88;100.00;101399.16;5279810;28;20358;-76
2022/03/29 03:54:00;;;;;;;53.25;35.85;;;;;;;5.80;100.00;101398.78;5282425;28;20523;-76
2022/03/29 03:56:31;;;;;;;56.10;37.97;;;;;;;5.72;100.00;101388.69;5283202;28;20025;-76
2022/03/29 03:59:03;;;;;;;53.88;37.33;;;;;;;5.74;100.00;101393.91;5282672;28;20418;-76
2022/03/29 04:01:34;;;;;;;59.95;39.17;;;;;;;5.68;100.00;101390.69;5260559;28;20040;-76
2022/03/29 04:04:06;;;;;;;62.88;40.15;;;;;;;5.58;100.00;101378.16;5274687;28;20029;-77
2022/03/29 04:06:37;;;;;;;62.35;39.97;;;;;;;5.58;100.00;101371.03;5275237;28;20033;-77
2022/03/29 04:09:08;;;;;;;61.30;39.80;;;;;;;5.59;100.00;101378.06;5281076;28;20032;-77
2022/03/29 04:11:40;;;;;;;68.22;42.90;;;;;;;5.58;100.00;101381.63;5282534;28;20029;-77
2022/03/29 04:14:11;;;;;;;68.82;44.22;;;;;;;5.55;100.00;101376.53;5282399;28;20124;-77
2022/03/29 04:16:42;;;;;;;63.45;41.55;;;;;;;5.47;100.00;101363.78;5279334;28;20053;-76
2022/03/29 04:19:13;;;;;;;60.70;41.08;;;;;;;5.43;100.00;101364.06;5279802;28;20577;-76
2022/03/29 04:21:45;;;;;;;60.22;40.80;;;;;;;5.37;100.00;101360.03;5282742;28;20043;-77
2022/03/29 04:24:16;;;;;;;61.30;42.20;;;;;;;5.27;100.00;101366.81;5282694;28;20025;-76
2022/03/29 04:26:48;;;;;;;57.15;34.60;;;;;;;5.56;100.00;101350.91;5283165;28;20091;-76
2022/03/29 04:29:20;;;;;;;62.42;39.35;;;;;;;5.51;100.00;101358.31;5280877;28;20059;-76
2022/03/29 04:31:52;;;;;;;67.78;40.78;;;;;;;5.62;100.00;101347.88;5278716;28;20021;-77
2022/03/29 04:34:23;;;;;;;83.95;50.70;;;;;;;5.39;100.00;101346.69;5283117;28;20021;-76
2022/03/29 04:36:55;;;;;;;78.68;48.08;;;;;;;5.35;100.00;101343.41;5275389;28;20064;-77
2022/03/29 04:39:27;;;;;;;78.25;46.25;;;;;;;5.43;100.00;101338.44;5282951;28;20039;-76
2022/03/29 04:41:58;;;;;;;80.70;49.53;;;;;;;5.42;100.00;101341.22;5283057;28;20448;-76
2022/03/29 04:44:29;;;;;;;69.78;41.60;;;;;;;5.64;100.00;101341.53;5282601;28;20040;-76
2022/03/29 04:47:01;;;;;;;80.57;48.90;;;;;;;5.37;100.00;101340.66;5282531;28;20028;-77
2022/03/29 04:49:33;;;;;;;84.88;51.10;;;;;;;5.39;100.00;101344.06;5279987;28;20017;-76
2022/03/29 04:52:06;;;;;;;76.32;48.40;;;;;;;5.27;100.00;101328.00;5275839;28;20036;-76
2022/03/29 04:54:37;;;;;;;84.13;50.65;;;;;;;5.33;100.00;101340.00;5274551;28;20021;-76
2022/03/29 04:57:08;;;;;;;80.28;49.42;;;;;;;5.32;100.00;101340.94;5273555;28;20508;-76
2022/03/29 04:59:39;;;;;;;77.00;49.33;;;;;;;5.26;100.00;101333.41;5282309;28;20466;-76
2022/03/29 05:02:11;;;;;;;73.97;47.63;;;;;;;5.36;100.00;101341.59;5282686;28;20072;-77
2022/03/29 05:04:42;;;;;;;79.35;48.13;;;;;;;5.33;100.00;101337.34;5283128;28;20025;-76
2022/03/29 05:07:13;;;;;;;68.57;45.40;;;;;;;5.35;100.00;101330.16;5283356;28;20071;-76
2022/03/29 05:09:45;;;;;;;71.68;47.75;;;;;;;5.29;100.00;101336.72;5242323;28;20041;-76
2022/03/29 05:12:16;;;;;;;75.35;48.33;;;;;;;5.29;100.00;101314.66;5268301;28;20037;-76
2022/03/29 05:14:48;;;;;;;74.18;48.67;;;;;;;5.27;100.00;101313.94;5282264;28;20031;-76
2022/03/29 05:17:19;;;;;;;74.53;49.60;;;;;;;5.30;100.00;101329.59;5251365;28;20048;-76
2022/03/29 05:19:51;;;;;;;73.00;48.70;;;;;;;5.33;100.00;101336.50;5272594;28;20086;-76
2022/03/29 05:22:22;;;;;;;77.57;50.28;;;;;;;5.29;100.00;101320.84;5269244;28;20025;-76
2022/03/29 05:24:53;;;;;;;75.85;48.45;;;;;;;5.25;100.00;101315.81;5273257;28;20075;-76
2022/03/29 05:27:25;;;;;;;77.68;50.25;;;;;;;5.28;100.00;101326.22;5280358;28;20037;-76
2022/03/29 05:29:56;;;;;;;73.00;49.03;;;;;;;5.30;100.00;101338.38;5280847;28;20013;-76
2022/03/29 05:32:28;;;;;;;72.90;48.15;;;;;;;5.26;100.00;101315.72;5282552;28;20360;-76
2022/03/29 05:34:59;;;;;;;78.38;49.45;;;;;;;5.34;100.00;101328.47;5281152;28;20175;-76
2022/03/29 05:37:30;;;;;;;76.00;49.67;;;;;;;5.33;100.00;101337.34;5282032;28;20024;-76
2022/03/29 05:40:03;;;;;;;87.82;52.13;;;;;;;5.34;100.00;101324.97;5252419;28;20041;-76
2022/03/29 05:42:42;;;;;;;81.60;50.25;;;;;;;5.37;100.00;101327.44;5282019;28;20021;-76
2022/03/29 05:45:13;;;;;;;85.22;51.15;;;;;;;5.42;100.00;101326.19;5280948;28;20029;-76
2022/03/29 05:50:34;;;;;;;82.90;49.75;;;;;;;5.49;100.00;101326.66;5281482;28;20405;-77
2022/03/29 05:53:06;;;;;;;84.65;50.92;;;;;;;5.53;100.00;101329.94;5279130;28;20037;-76
2022/03/29 05:55:37;;;;;;;81.07;50.72;;;;;;;5.59;100.00;101327.78;5282452;28;20040;-76
2022/03/29 05:58:09;;;;;;;87.80;52.15;;;;;;;5.57;100.00;101321.69;5281662;28;20021;-76
2022/03/29 06:00:40;;;;;;;90.10;51.45;;;;;;;5.61;100.00;101327.66;5281285;28;20060;-77
2022/03/29 06:03:11;;;;;;;90.70;51.85;;;;;;;5.68;100.00;101324.53;5275475;28;20029;-77
2022/03/29 06:05:46;;;;;;;88.38;51.88;;;;;;;5.67;100.00;101319.31;5282689;28;20234;-76
2022/03/29 06:08:17;;;;;;;84.65;50.00;;;;;;;5.79;100.00;101330.94;5281420;28;20017;-77
2022/03/29 06:10:48;;;;;;;90.15;50.97;;;;;;;5.78;100.00;101324.75;5278948;28;20385;-77
2022/03/29 06:13:20;;;;;;;91.50;50.25;;;;;;;5.88;100.00;101312.63;5275046;28;20037;-77
2022/03/29 06:15:53;;;;;;;80.97;46.35;;;;;;;5.97;100.00;101318.31;5281994;28;20051;-77
2022/03/29 06:18:24;;;;;;;90.20;53.28;;;;;;;5.97;100.00;101315.66;5264802;28;20021;-77
2022/03/29 06:20:56;;;;;;;90.57;54.33;;;;;;;6.04;100.00;101319.59;5260543;28;20532;-77
2022/03/29 06:23:28;;;;;;;87.85;51.67;;;;;;;6.09;100.00;101321.94;5260907;28;20079;-77
2022/03/29 06:25:59;;;;;;;85.20;51.15;;;;;;;6.09;100.00;101314.00;5272654;28;20388;-77
2022/03/29 06:28:30;;;;;;;83.65;50.35;;;;;;;6.16;100.00;101325.88;5281659;28;20051;-77
2022/03/29 06:31:02;;;;;;;89.65;50.83;;;;;;;6.18;100.00;101319.53;5282137;28;20037;-77
2022/03/29 06:33:33;;;;;;;86.07;50.83;;;;;;;6.20;100.00;101314.97;5281899;28;20112;-77
2022/03/29 06:36:04;;;;;;;84.72;50.50;;;;;;;6.15;100.00;101303.00;5281573;28;20029;-77
2022/03/29 06:38:36;;;;;;;95.15;53.38;;;;;;;6.15;100.00;101316.22;5279653;28;20063;-77
2022/03/29 06:41:10;;;;;;;91.80;53.97;;;;;;;6.14;100.00;101323.34;5285220;28;20041;-76
2022/03/29 06:43:41;;;;;;;87.45;52.53;;;;;;;6.20;100.00;101316.78;5284479;28;20135;-77
2022/03/29 06:46:14;;;;;;;87.20;52.33;;;;;;;6.22;100.00;101317.53;5285326;28;20481;-76
2022/03/29 06:48:45;;;;;;;89.03;52.00;;;;;;;6.30;100.00;101327.63;5282241;28;20028;-78
2022/03/29 06:51:18;;;;;;;88.40;51.97;;;;;;;6.32;100.00;101317.75;5264726;28;20351;-78
2022/03/29 06:53:49;;;;;;;90.72;53.50;;;;;;;6.35;100.00;101310.47;5266591;28;20021;-78
2022/03/29 06:56:21;;;;;;;91.85;52.47;;;;;;;6.37;100.00;101310.34;5285144;28;20090;-78
2022/03/29 06:58:52;;;;;;;94.47;53.95;;;;;;;6.30;100.00;101290.53;5283420;28;36568;-78
2022/03/29 07:01:23;;;;;;;89.82;53.35;;;;;;;6.38;100.00;101314.69;5284763;28;20024;-78
2022/03/29 07:03:59;;;;;;;90.03;51.80;;;;;;;6.38;100.00;101310.25;5284814;28;20103;-78
2022/03/29 07:06:31;;;;;;;92.90;53.90;;;;;;;6.52;100.00;101306.66;5284557;28;20477;-78
2022/03/29 07:11:53;;;;;;;92.97;53.08;;;;;;;6.52;100.00;101305.81;5284838;28;20444;-78
2022/03/29 07:14:24;;;;;;;88.88;52.03;;;;;;;6.57;100.00;101306.34;5284463;28;19919;-78
2022/03/29 07:16:55;;;;;;;92.68;52.85;;;;;;;6.62;100.00;101302.41;5284316;28;20093;-78
2022/03/29 07:19:27;;;;;;;90.50;50.85;;;;;;;6.61;100.00;101294.59;5284227;28;20100;-78
2022/03/29 07:21:58;;;;;;;91.07;52.13;;;;;;;6.60;100.00;101306.13;5265976;28;20033;-78
2022/03/29 07:24:30;;;;;;;91.85;52.25;;;;;;;6.67;100.00;101309.22;5266293;28;20412;-78
2022/03/29 07:27:01;;;;;;;90.97;48.85;;;;;;;6.67;100.00;101304.75;5266255;28;20104;-78
2022/03/29 07:29:33;;;;;;;99.95;54.63;;;;;;;6.65;100.00;101311.97;5280449;28;20441;-78
2022/03/29 07:32:05;;;;;;;88.57;49.35;;;;;;;6.77;100.00;101320.88;5284031;28;20457;-78
2022/03/29 07:34:37;;;;;;;85.13;49.65;;;;;;;6.81;100.00;101315.25;5284215;28;20028;-78
2022/03/29 07:37:08;;;;;;;85.75;48.75;;;;;;;6.81;100.00;101312.59;5283944;28;20096;-78
2022/03/29 07:39:41;;;;;;;87.07;50.53;;;;;;;6.86;100.00;101314.94;5269236;28;20517;-78
2022/03/29 07:42:12;;;;;;;93.65;52.80;;;;;;;6.89;100.00;101325.34;5262677;28;20124;-78
2022/03/29 07:44:44;;;;;;;87.05;47.92;;;;;;;6.94;100.00;101322.34;5277429;28;20104;-78
2022/03/29 07:47:19;;;;;;;89.50;48.75;;;;;;;6.90;100.00;101334.13;5284241;28;20021;-78
2022/03/29 07:49:50;;;;;;;83.95;47.38;;;;;;;6.88;100.00;101333.41;5283775;28;20649;-78
2022/03/29 07:52:21;;;;;;;92.07;51.83;;;;;;;6.88;100.00;101347.50;5284053;28;20120;-78
2022/03/29 07:54:53;;;;;;;86.30;48.13;;;;;;;6.93;100.00;101340.06;5284220;28;20377;-78
2022/03/29 07:57:25;;;;;;;91.57;50.70;;;;;;;7.08;100.00;101342.59;5283877;28;20029;-77
2022/03/29 07:59:56;;;;;;;85.88;48.72;;;;;;;7.10;100.00;101340.69;5283297;28;20024;-78
2022/03/29 08:02:27;;;;;;;89.30;49.45;;;;;;;7.17;100.00;101334.00;5274125;28;20550;-77
2022/03/29 08:04:58;;;;;;;89.18;49.90;;;;;;;7.33;100.00;101339.94;5262999;28;20017;-77
2022/03/29 08:07:30;;;;;;;87.10;50.45;;;;;;;7.33;100.00;101331.97;5269107;28;20111;-77
2022/03/29 08:10:01;;;;;;;89.45;51.08;;;;;;;7.41;100.00;101333.22;5264942;28;20032;-76
2022/03/29 08:12:33;;;;;;;90.93;50.38;;;;;;;7.38;100.00;101315.69;5283875;28;20076;-77
2022/03/29 08:15:06;;;;;;;90.35;51.08;;;;;;;7.54;100.00;101334.88;5283469;28;20025;-77
2022/03/29 08:17:38;;;;;;;87.90;49.90;;;;;;;7.52;100.00;101322.66;5273719;28;20024;-77
2022/03/29 08:20:10;;;;;;;91.95;51.55;;;;;;;7.53;100.00;101319.91;5262545;28;20029;-78
2022/03/29 08:22:44;;;;;;;80.00;45.63;;;;;;;7.58;100.00;101314.28;5272068;28;20421;-78
2022/03/29 08:25:18;;;;;;;87.25;49.28;;;;;;;7.63;100.00;101313.94;5283469;28;20025;-77
2022/03/29 08:27:50;;;;;;;86.57;48.95;;;;;;;7.68;100.00;101315.31;5283670;28;20025;-78
2022/03/29 08:30:22;;;;;;;87.68;49.60;;;;;;;7.74;100.00;101317.50;5283204;28;20527;-77
2022/03/29 08:32:54;;;;;;;85.15;48.58;;;;;;;7.71;100.00;101309.78;5264895;28;20513;-76
2022/03/29 08:35:25;;;;;;;86.70;48.45;;;;;;;7.81;100.00;101317.06;5283367;28;20029;-77
2022/03/29 08:37:57;;;;;;;84.00;47.30;;;;;;;7.81;100.00;101319.72;5283352;28;20025;-77
2022/03/29 08:40:28;;;;;;;83.57;49.40;;;;;;;7.83;100.00;101307.16;5283166;28;20045;-77
2022/03/29 08:43:00;;;;;;;83.32;48.05;;;;;;;7.97;100.00;101311.47;5282741;28;20028;-77
2022/03/29 08:45:31;;;;;;;80.80;47.83;;;;;;;7.98;100.00;101307.81;5283368;28;20013;-76
2022/03/29 08:48:03;;;;;;;78.75;47.78;;;;;;;7.89;100.00;101320.00;5283332;28;20493;-77
2022/03/29 08:50:36;;;;;;;81.50;45.17;;;;;;;7.96;100.00;101323.91;5278600;28;20048;-78
2022/03/29 08:53:11;;;;;;;89.13;49.30;;;;;;;8.04;100.00;101325.97;5283211;28;20032;-78
2022/03/29 08:55:44;;;;;;;87.30;47.55;;;;;;;7.90;100.00;101324.34;5282840;28;20017;-77
2022/03/29 08:58:17;;;;;;;86.55;51.20;;;;;;;8.02;100.00;101323.44;5282446;28;20894;-77
2022/03/29 09:00:49;;;;;;;83.53;48.58;;;;;;;8.13;100.00;101317.31;5282750;28;20450;-77
2022/03/29 09:03:21;;;;;;;87.30;48.70;;;;;;;8.16;100.00;101311.78;5264257;28;20186;-77
2022/03/29 09:06:09;;;;;;;93.80;50.67;;;;;;;8.35;100.00;101313.88;5283565;28;20108;-78
2022/03/29 09:08:45;;;;;;;85.75;48.72;;;;;;;8.25;100.00;101310.22;5282549;28;20029;-78
2022/03/29 09:11:16;;;;;;;92.45;50.17;;;;;;;8.29;100.00;101304.56;5282973;28;20029;-77
2022/03/29 09:14:02;;;;;;;85.18;49.67;;;;;;;8.45;100.00;101312.25;5282693;28;20363;-77
2022/03/29 09:16:34;;;;;;;91.18;50.88;;;;;;;8.31;100.00;101301.81;5264786;28;20021;-78
2022/03/29 09:19:06;;;;;;;93.57;51.13;;;;;;;8.31;100.00;101307.97;5283174;28;20024;-78
2022/03/29 09:21:45;;;;;;;89.45;50.15;;;;;;;8.36;100.00;101293.47;5283323;28;20461;-77
2022/03/29 09:24:18;;;;;;;99.57;51.83;;;;;;;8.33;100.00;101305.19;5264001;28;20441;-77
2022/03/29 09:26:52;;;;;;;99.05;50.55;;;;;;;8.27;100.00;101297.66;5283122;28;20051;-78
2022/03/29 09:29:25;;;;;;;99.00;51.53;;;;;;;8.26;100.00;101298.66;5281614;28;20025;-77
2022/03/29 09:32:04;;;;;;;95.18;50.47;;;;;;;8.26;100.00;101309.28;5282509;28;20382;-76
2022/03/29 09:34:36;;;;;;;93.63;49.72;;;;;;;8.40;100.00;101300.25;5282694;28;20036;-77
2022/03/29 09:37:07;;;;;;;98.88;52.25;;;;;;;8.42;100.00;101288.56;5282682;28;20025;-77
2022/03/29 09:39:40;;;;;;;104.25;54.50;;;;;;;8.69;100.00;101300.69;5276529;28;20079;-77
2022/03/29 09:42:13;;;;;;;102.38;53.78;;;;;;;8.77;100.00;101292.13;5282248;28;20041;-77
2022/03/29 09:44:46;;;;;;;106.75;54.85;;;;;;;8.86;100.00;101286.94;5264209;28;20457;-77
2022/03/29 09:47:22;;;;;;;103.05;52.72;;;;;;;8.94;100.00;101288.13;5282132;28;20430;-77
2022/03/29 09:49:59;;;;;;;98.50;52.72;;;;;;;9.06;100.00;101284.50;5260862;28;20029;-77
2022/03/29 09:52:34;;;;;;;99.60;52.22;;;;;;;9.13;100.00;101280.38;5281940;28;20108;-77
2022/03/29 09:55:13;;;;;;;101.28;54.03;;;;;;;9.35;100.00;101276.84;5282040;28;20027;-77
2022/03/29 09:57:46;;;;;;;103.40;54.85;;;;;;;9.25;100.00;101274.06;5282036;28;20025;-77
2022/03/29 10:00:24;;;;;;;107.38;56.35;;;;;;;9.24;100.00;101267.06;5263610;28;20428;-77
2022/03/29 10:02:57;;;;;;;102.07;54.45;;;;;;;9.26;100.00;101266.97;5272769;28;20532;-78
2022/03/29 10:05:31;;;;;;;87.55;50.83;;;;;;;9.22;100.00;101261.03;5282689;28;20583;-78
2022/03/29 10:11:01;;;;;;;85.90;49.43;;;;;;;9.47;100.00;101259.03;5281666;28;20033;-78
2022/03/29 10:13:33;;;;;;;83.45;49.17;;;;;;;9.42;100.00;101239.94;5283927;28;20025;-78
2022/03/29 10:16:04;;;;;;;83.22;49.80;;;;;;;9.44;100.00;101246.81;5267392;28;20039;-76
2022/03/29 10:18:36;;;;;;;81.90;48.08;;;;;;;9.60;100.00;101245.56;5267902;28;20076;-76
2022/03/29 10:21:11;;;;;;;69.82;45.00;;;;;;;9.60;100.00;101242.91;5264858;28;20168;-76
2022/03/29 10:23:44;;;;;;;65.05;44.85;;;;;;;9.68;100.00;101243.13;5246212;28;20143;-76
2022/03/29 10:26:18;;;;;;;65.53;43.67;;;;;;;9.83;100.00;101248.97;5246917;28;20109;-76
2022/03/29 10:28:50;;;;;;;57.65;39.45;;;;;;;9.81;100.00;101240.28;5264212;28;20097;-76
2022/03/29 10:31:36;;;;;;;61.55;42.33;;;;;;;9.83;100.00;101243.66;5264653;28;20037;-76
2022/03/29 10:34:17;;;;;;;58.20;40.80;;;;;;;9.75;100.00;101241.63;5263913;28;20025;-77
2022/03/29 10:37:09;;;;;;;57.20;41.42;;;;;;;9.84;100.00;101240.88;5272163;28;20029;-77
2022/03/29 10:40:01;;;;;;;54.88;39.15;;;;;;;9.95;100.00;101241.78;5284901;28;20369;-77
2022/03/29 10:42:46;;;;;;;62.00;42.60;;;;;;;10.48;100.00;101233.72;5284976;28;20473;-77
2022/03/29 10:45:24;;;;;;;57.58;38.55;;;;;;;10.89;100.00;101242.66;5284444;28;20377;-77
2022/03/29 10:48:06;;;;;;;57.40;40.95;;;;;;;11.04;100.00;101226.25;5284327;28;20040;-77
2022/03/29 10:50:50;;;;;;;55.45;40.22;;;;;;;11.20;100.00;101226.56;5264056;28;20014;-77
2022/03/29 10:53:26;;;;;;;50.78;38.17;;;;;;;10.96;100.00;101225.09;5263826;28;20049;-77
2022/03/29 10:56:13;;;;;;;54.10;39.78;;;;;;;11.13;100.00;101222.75;5263855;28;20382;-77
2022/03/29 10:59:02;;;;;;;52.85;38.42;;;;;;;11.16;100.00;101223.31;5245173;28;20025;-77
2022/03/29 11:01:39;;;;;;;51.65;37.00;;;;;;;11.06;100.00;101214.47;5264151;28;20026;-77
2022/03/29 11:04:20;;;;;;;52.83;37.58;;;;;;;11.35;100.00;101214.50;5265889;28;20048;-77
2022/03/29 11:07:06;;;;;;;47.90;36.83;;;;;;;11.89;100.00;101203.44;5285036;28;20041;-77
2022/03/29 11:09:40;;;;;;;47.00;36.47;;;;;;;11.77;100.00;101192.03;5284223;28;22785;-77
2022/03/29 11:12:37;;;;;;;48.17;34.92;;;;;;;12.06;100.00;101191.19;5284767;28;20028;-77
2022/03/29 11:15:38;;;;;;;48.15;36.55;;;;;;;12.42;100.00;101191.38;5284367;28;20552;-77
2022/03/29 11:18:31;;;;;;;47.50;35.63;;;;;;;12.58;100.00;101196.09;5249941;28;20064;-77
2022/03/29 11:21:04;;;;;;;45.80;34.85;;;;;;;12.59;100.00;101189.78;5245173;28;20044;-77
2022/03/29 11:23:37;;;;;;;44.28;34.08;;;;;;;12.76;100.00;101189.00;5263273;28;20104;-76
2022/03/29 11:26:10;;;;;;;42.42;33.97;;;;;;;13.06;100.00;101184.34;5280533;28;37624;-77
2022/03/29 11:28:54;;;;;;;47.13;36.13;;;;;;;14.57;100.00;101194.13;5284298;28;20025;-77
2022/03/29 11:31:39;;;;;;;41.78;34.22;;;;;;;15.69;100.00;101186.72;5266272;28;20108;-77
2022/03/29 11:34:11;;;;;;;40.47;33.40;;;;;;;16.21;100.00;101177.44;5283670;28;20044;-77
2022/03/29 11:36:43;;;;;;;44.78;34.28;;;;;;;17.01;100.00;101181.91;5284786;28;20095;-77
2022/03/29 11:39:22;;;;;;;42.67;35.22;;;;;;;17.30;100.00;101174.16;5261971;28;20417;-78
2022/03/29 11:41:55;;;;;;;44.65;36.95;;;;;;;17.42;100.00;101170.03;5262719;28;20060;-77
2022/03/29 11:44:26;;;;;;;43.13;34.78;;;;;;;19.41;100.00;101167.72;5266509;28;20428;-78
2022/03/29 11:46:58;;;;;;;43.35;35.05;;;;;;;21.97;85.41;101153.31;5283709;28;20083;-78
2022/03/29 11:49:38;;;;;;;41.75;33.80;;;;;;;22.42;61.26;101148.88;5284234;28;20017;-78